Time;durP1;ratioP1;P1;durP2;ratioP2;P2;SDS_P1;SDS_P2;PMS_P1;PMS_P2;Temp;Humidity;BMP_temperature;BMP_pressure;BME280_temperature;BME280_humidity;BME280_pressure;Samples;Min_cycle;Max_cycle;Signal;HPM_P1;HPM_P2
2022/07/16 00:01:27;;;;;;;4.13;1.38;;;;;;;14.09;62.96;99241.47;5022457;28;20045;-80
2022/07/16 00:03:54;;;;;;;2.63;1.05;;;;;;;13.85;62.15;99224.16;5008309;28;20038;-80
2022/07/16 00:06:21;;;;;;;2.55;0.90;;;;;;;14.07;61.87;99228.31;5007894;28;20132;-80
2022/07/16 00:08:46;;;;;;;3.35;1.35;;;;;;;13.97;61.36;99206.00;5022546;28;20045;-80
2022/07/16 00:11:12;;;;;;;0.52;0.52;;;;;;;14.09;61.63;99214.63;5024974;28;20401;-80
2022/07/16 00:13:39;;;;;;;1.73;1.00;;;;;;;14.17;61.29;99236.44;5027093;28;20453;-80
2022/07/16 00:16:06;;;;;;;1.17;0.95;;;;;;;14.18;61.95;99231.84;5023900;28;21642;-80
2022/07/16 00:21:15;;;;;;;5.53;1.02;;;;;;;14.33;60.45;99220.41;5023514;28;20033;-80
2022/07/16 00:23:40;;;;;;;1.50;0.95;;;;;;;15.19;58.22;99219.50;5021086;28;20037;-80
2022/07/16 00:26:06;;;;;;;1.20;0.93;;;;;;;15.51;57.41;99220.03;5027267;28;20038;-80
2022/07/16 00:28:31;;;;;;;2.33;0.60;;;;;;;15.57;56.95;99224.31;5024673;28;20397;-80
2022/07/16 00:30:57;;;;;;;1.45;0.90;;;;;;;15.57;56.43;99200.09;5001365;28;20405;-80
2022/07/16 00:33:22;;;;;;;1.55;0.93;;;;;;;15.66;56.78;99213.84;5028048;28;20083;-80
2022/07/16 00:35:47;;;;;;;2.50;0.90;;;;;;;15.54;56.60;99205.22;5008130;28;20468;-80
2022/07/16 00:38:13;;;;;;;3.00;1.00;;;;;;;15.56;56.70;99189.63;5006334;28;20073;-80
2022/07/16 00:40:38;;;;;;;1.25;1.02;;;;;;;15.64;56.86;99202.50;5022998;28;20144;-80
2022/07/16 00:43:04;;;;;;;1.25;0.88;;;;;;;15.59;56.71;99203.34;4989668;28;20037;-80
2022/07/16 00:45:29;;;;;;;4.15;0.95;;;;;;;15.69;56.65;99214.09;5004623;28;20393;-80
2022/07/16 00:47:55;;;;;;;1.70;1.23;;;;;;;15.55;57.17;99206.84;5022072;28;20021;-80
2022/07/16 00:50:20;;;;;;;1.23;1.05;;;;;;;15.15;56.39;99120.81;5021535;28;20033;-80
2022/07/16 00:52:45;;;;;;;1.67;1.55;;;;;;;14.92;59.89;99208.97;5025125;28;20547;-80
2022/07/16 00:55:11;;;;;;;1.33;1.23;;;;;;;13.76;62.82;99180.16;5008435;28;20164;-80
2022/07/16 00:57:36;;;;;;;2.88;1.38;;;;;;;13.14;65.14;99196.09;5022282;28;20476;-80
2022/07/16 01:00:05;;;;;;;4.63;1.75;;;;;;;13.07;66.34;99212.38;5018501;28;20064;-80
2022/07/16 01:02:30;;;;;;;1.98;1.52;;;;;;;13.07;66.38;99207.03;5021754;28;20416;-80
2022/07/16 01:04:56;;;;;;;1.85;1.70;;;;;;;12.92;66.69;99201.50;5023431;28;20033;-80
2022/07/16 01:07:23;;;;;;;4.97;1.65;;;;;;;13.12;65.72;99212.44;5024987;28;20515;-80
2022/07/16 01:09:49;;;;;;;5.22;1.80;;;;;;;13.00;66.40;99197.53;5025208;28;20123;-79
2022/07/16 01:12:15;;;;;;;1.15;1.05;;;;;;;12.95;65.65;99206.38;5032344;28;20504;-80
2022/07/16 01:14:41;;;;;;;4.53;1.50;;;;;;;12.44;67.62;99199.69;5032079;28;20041;-80
2022/07/16 01:17:07;;;;;;;2.78;1.77;;;;;;;12.68;66.69;99189.50;5023289;28;20120;-80
2022/07/16 01:19:33;;;;;;;1.20;1.10;;;;;;;12.78;66.22;99187.72;5021177;28;20055;-80
2022/07/16 01:21:58;;;;;;;4.50;1.58;;;;;;;12.91;66.51;99204.44;5022969;28;20041;-80
2022/07/16 01:24:24;;;;;;;1.67;1.27;;;;;;;12.92;66.47;99206.03;5007106;28;20043;-80
2022/07/16 01:26:49;;;;;;;1.20;1.10;;;;;;;13.22;64.58;99207.13;4999719;28;20095;-80
2022/07/16 01:29:14;;;;;;;2.28;1.58;;;;;;;13.63;63.53;99188.66;5025458;28;20037;-80
2022/07/16 01:31:40;;;;;;;7.00;1.20;;;;;;;14.11;60.93;99183.78;5000930;28;20471;-80
2022/07/16 01:37:01;;;;;;;2.53;1.65;;;;;;;14.00;61.55;99189.38;5023749;28;20032;-80
2022/07/16 01:39:28;;;;;;;4.32;1.08;;;;;;;14.53;59.84;99191.72;5020322;28;20037;-80
2022/07/16 01:42:00;;;;;;;1.33;1.00;;;;;;;14.85;58.86;99184.25;5018211;28;20026;-80
2022/07/16 01:44:27;;;;;;;3.10;1.30;;;;;;;14.98;58.30;99185.63;5023443;28;20493;-80
2022/07/16 01:46:54;;;;;;;3.30;1.13;;;;;;;15.09;57.99;99189.09;5018594;28;20032;-80
2022/07/16 01:49:19;;;;;;;1.52;0.95;;;;;;;15.18;58.03;99193.66;5022696;28;20037;-80
2022/07/16 01:51:44;;;;;;;1.30;1.02;;;;;;;15.12;57.66;99175.09;5017432;28;20044;-80
2022/07/16 01:54:10;;;;;;;2.72;1.10;;;;;;;15.24;57.56;99186.41;5025267;28;20021;-80
2022/07/16 01:56:36;;;;;;;2.42;1.13;;;;;;;15.23;57.20;99185.59;5014257;28;20067;-80
2022/07/16 01:59:02;;;;;;;2.03;1.23;;;;;;;15.25;57.27;99186.13;4992101;28;20058;-80
2022/07/16 02:01:28;;;;;;;2.55;0.90;;;;;;;15.31;57.35;99192.34;4985411;28;20493;-80
2022/07/16 02:03:53;;;;;;;0.85;0.85;;;;;;;15.30;56.96;99174.56;5023503;28;20022;-80
2022/07/16 02:06:19;;;;;;;2.17;1.20;;;;;;;15.15;57.31;99156.56;5002633;28;20026;-80
2022/07/16 02:08:44;;;;;;;3.55;1.13;;;;;;;15.23;57.42;99171.34;5002787;28;20525;-80
2022/07/16 02:11:09;;;;;;;2.80;1.35;;;;;;;15.19;57.28;99172.97;5021076;28;20034;-80
2022/07/16 02:13:35;;;;;;;4.07;1.08;;;;;;;15.28;57.45;99187.47;4989764;28;20485;-81
2022/07/16 02:16:01;;;;;;;3.80;1.00;;;;;;;15.27;57.42;99175.91;5014729;28;20044;-80
2022/07/16 02:18:26;;;;;;;2.65;1.08;;;;;;;15.18;57.36;99155.22;5019810;28;20516;-80
2022/07/16 02:20:52;;;;;;;3.67;1.38;;;;;;;15.30;57.31;99170.00;5002872;28;20042;-81
2022/07/16 02:23:18;;;;;;;1.77;0.93;;;;;;;15.24;57.84;99171.09;5022567;28;20099;-80
2022/07/16 02:25:43;;;;;;;1.92;1.00;;;;;;;15.21;57.23;99155.47;4995739;28;20041;-80
2022/07/16 02:28:08;;;;;;;2.33;1.20;;;;;;;15.15;57.60;99161.13;5019480;28;20041;-80
2022/07/16 02:30:37;;;;;;;3.58;1.27;;;;;;;15.00;58.13;99160.06;5000995;28;20413;-80
2022/07/16 02:33:03;;;;;;;3.55;1.00;;;;;;;14.63;59.54;99161.41;5020933;28;20090;-80
2022/07/16 02:35:29;;;;;;;1.77;1.20;;;;;;;14.40;60.56;99169.94;5017288;28;20029;-79
2022/07/16 02:37:54;;;;;;;4.63;1.70;;;;;;;14.37;60.76;99176.66;5022924;28;20025;-80
2022/07/16 02:40:19;;;;;;;1.63;0.90;;;;;;;14.76;58.91;99139.38;4987399;28;20030;-80
2022/07/16 02:42:45;;;;;;;1.35;1.23;;;;;;;14.82;59.99;99174.03;5004420;28;20497;-80
2022/07/16 02:45:11;;;;;;;3.47;1.20;;;;;;;14.80;59.72;99160.06;5005429;28;20030;-80
2022/07/16 02:47:37;;;;;;;3.65;1.10;;;;;;;15.14;58.40;99159.50;5019322;28;20033;-80
2022/07/16 02:50:03;;;;;;;4.18;1.30;;;;;;;15.22;58.16;99175.13;5022874;28;20554;-80
2022/07/16 02:52:28;;;;;;;4.07;1.13;;;;;;;14.97;59.20;99165.97;5021208;28;20041;-80
2022/07/16 02:54:54;;;;;;;2.83;1.15;;;;;;;15.13;59.13;99184.81;5015764;28;20036;-80
2022/07/16 02:57:19;;;;;;;2.97;1.30;;;;;;;14.65;61.06;99186.13;5021086;28;20034;-80
2022/07/16 02:59:44;;;;;;;5.55;1.50;;;;;;;14.58;62.17;99183.69;5018056;28;20551;-80
2022/07/16 03:02:10;;;;;;;2.65;1.55;;;;;;;14.97;60.40;99182.13;5017585;28;20041;-80
2022/07/16 03:04:35;;;;;;;1.65;1.42;;;;;;;15.17;58.80;99170.56;5020102;28;20026;-80
2022/07/16 03:07:01;;;;;;;0.95;0.95;;;;;;;15.19;58.75;99167.59;5005221;28;20091;-80
2022/07/16 03:09:26;;;;;;;3.08;2.25;;;;;;;15.36;58.35;99165.41;5006108;28;20029;-80
2022/07/16 03:11:51;;;;;;;2.17;1.30;;;;;;;15.49;57.71;99167.56;5021196;28;20036;-80
2022/07/16 03:14:17;;;;;;;1.00;0.93;;;;;;;15.72;57.18;99164.28;5022465;28;20029;-80
2022/07/16 03:16:42;;;;;;;2.22;1.35;;;;;;;15.51;58.49;99176.97;5000407;28;20048;-80
2022/07/16 03:19:08;;;;;;;2.67;1.23;;;;;;;15.53;58.73;99174.03;5003641;28;20025;-80
2022/07/16 03:21:33;;;;;;;1.95;1.00;;;;;;;15.56;57.72;99178.84;5002359;28;20025;-80
2022/07/16 03:23:58;;;;;;;2.63;1.30;;;;;;;15.66;57.49;99170.78;5020795;28;20041;-81
2022/07/16 03:26:24;;;;;;;2.53;1.13;;;;;;;15.63;57.27;99165.94;5024972;28;20128;-80
2022/07/16 03:28:49;;;;;;;2.33;0.90;;;;;;;15.67;57.26;99167.81;5022426;28;20091;-80
2022/07/16 03:31:17;;;;;;;1.60;1.25;;;;;;;15.62;57.90;99167.00;5003664;28;20037;-80
2022/07/16 03:33:43;;;;;;;4.57;1.60;;;;;;;15.63;57.58;99157.88;5023035;28;20029;-80
2022/07/16 03:36:09;;;;;;;3.75;1.67;;;;;;;15.74;57.50;99164.81;5007452;28;20083;-80
2022/07/16 03:41:18;;;;;;;3.70;1.15;;;;;;;15.65;57.46;99167.28;5022700;28;20046;-80
2022/07/16 03:43:43;;;;;;;1.85;1.40;;;;;;;15.61;57.75;99149.25;5003498;28;20677;-80
2022/07/16 03:46:12;;;;;;;4.28;1.40;;;;;;;15.49;57.64;99154.13;5005079;28;20063;-81
2022/07/16 03:48:37;;;;;;;1.30;1.20;;;;;;;15.68;57.83;99155.94;5023195;28;20509;-80
2022/07/16 03:51:04;;;;;;;2.55;1.38;;;;;;;15.41;58.14;99139.31;5021842;28;20121;-80
2022/07/16 03:53:29;;;;;;;1.33;1.20;;;;;;;15.57;57.92;99157.06;5022512;28;20045;-80
2022/07/16 03:55:55;;;;;;;2.22;1.27;;;;;;;15.56;57.64;99157.34;5020452;28;20467;-80
2022/07/16 03:58:20;;;;;;;2.53;1.30;;;;;;;15.61;57.73;99138.50;4992286;28;20757;-80
2022/07/16 04:00:45;;;;;;;4.22;2.05;;;;;;;15.72;57.12;99169.69;5020531;28;21422;-80
2022/07/16 04:03:11;;;;;;;2.63;1.50;;;;;;;15.69;57.71;99164.84;5005218;28;20141;-80
2022/07/16 04:05:36;;;;;;;2.60;1.40;;;;;;;15.65;58.25;99178.03;5007073;28;20048;-80
2022/07/16 04:08:02;;;;;;;2.22;1.67;;;;;;;15.51;58.63;99154.66;5025853;28;20037;-80
2022/07/16 04:10:27;;;;;;;2.17;1.42;;;;;;;15.55;58.68;99163.81;5027176;28;20052;-80
2022/07/16 04:12:52;;;;;;;1.77;1.67;;;;;;;15.61;58.27;99160.03;5027239;28;20056;-80
2022/07/16 04:15:18;;;;;;;6.43;1.60;;;;;;;15.59;58.45;99154.09;5025491;28;20510;-80
2022/07/16 04:17:43;;;;;;;3.13;1.63;;;;;;;15.72;58.39;99167.00;5010172;28;20033;-80
2022/07/16 04:20:09;;;;;;;2.33;1.88;;;;;;;15.58;58.74;99163.25;5019911;28;20045;-80
2022/07/16 04:22:34;;;;;;;4.72;1.90;;;;;;;15.47;59.05;99153.59;5010840;28;20029;-80
2022/07/16 04:24:59;;;;;;;4.55;1.70;;;;;;;15.64;58.36;99154.06;5025110;28;20132;-80
2022/07/16 04:27:25;;;;;;;2.28;1.65;;;;;;;15.73;58.36;99158.63;4992243;28;20095;-80
2022/07/16 04:29:50;;;;;;;2.83;1.85;;;;;;;15.82;58.21;99156.19;5018525;28;20548;-80
2022/07/16 04:32:16;;;;;;;4.43;1.60;;;;;;;15.69;59.06;99159.44;5022875;28;20038;-80
2022/07/16 04:34:41;;;;;;;1.40;1.30;;;;;;;15.71;58.99;99159.97;5024968;28;20041;-80
2022/07/16 04:37:06;;;;;;;4.68;1.85;;;;;;;16.01;58.11;99164.47;5005440;28;20041;-80
2022/07/16 04:39:32;;;;;;;2.25;1.30;;;;;;;16.10;57.89;99162.78;5024079;28;20120;-80
2022/07/16 04:41:57;;;;;;;3.10;1.85;;;;;;;15.90;59.09;99163.69;5020522;28;20087;-80
2022/07/16 04:44:22;;;;;;;2.00;1.80;;;;;;;16.05;58.35;99162.84;5021274;28;20041;-80
2022/07/16 04:46:48;;;;;;;3.17;2.28;;;;;;;15.97;60.04;99158.81;5002676;28;20091;-81
2022/07/16 04:49:13;;;;;;;2.88;1.60;;;;;;;16.00;58.69;99144.00;5003899;28;20430;-80
2022/07/16 04:51:39;;;;;;;2.25;1.63;;;;;;;16.17;58.31;99144.44;4990404;28;20565;-80
2022/07/16 04:54:04;;;;;;;5.25;1.85;;;;;;;16.28;58.50;99154.09;4989478;28;20033;-80
2022/07/16 04:56:29;;;;;;;5.68;1.80;;;;;;;16.24;58.47;99137.69;5021840;28;20036;-81
2022/07/16 04:58:55;;;;;;;2.30;1.67;;;;;;;16.27;58.35;99134.41;5018379;28;20042;-80
2022/07/16 05:01:20;;;;;;;1.95;1.80;;;;;;;16.27;58.72;99142.50;4999920;28;20151;-80
2022/07/16 05:03:46;;;;;;;2.40;1.80;;;;;;;16.38;58.65;99149.44;5007422;28;20159;-80
2022/07/16 05:06:11;;;;;;;3.33;1.90;;;;;;;16.34;58.82;99137.63;4986039;28;20026;-80
2022/07/16 05:08:36;;;;;;;3.78;1.90;;;;;;;16.33;58.63;99138.72;5007525;28;20102;-81
2022/07/16 05:11:02;;;;;;;4.25;1.65;;;;;;;16.52;58.88;99156.94;5022494;28;20049;-80
2022/07/16 05:13:27;;;;;;;2.40;1.73;;;;;;;16.45;59.01;99149.13;5006630;28;20025;-80
2022/07/16 05:15:53;;;;;;;4.70;2.33;;;;;;;16.40;58.63;99128.41;5020789;28;20124;-80
2022/07/16 05:18:18;;;;;;;5.15;2.13;;;;;;;16.50;58.91;99149.13;5001571;28;20029;-80
2022/07/16 05:20:43;;;;;;;3.95;1.90;;;;;;;16.41;59.89;99143.50;5015552;28;20409;-80
2022/07/16 05:23:09;;;;;;;4.22;1.80;;;;;;;16.44;59.13;99134.88;5002471;28;20037;-80
2022/07/16 05:25:34;;;;;;;5.65;2.22;;;;;;;16.50;59.17;99154.53;5007209;28;20035;-80
2022/07/16 05:28:00;;;;;;;2.25;1.98;;;;;;;16.47;58.96;99131.59;5022223;28;20034;-80
2022/07/16 05:30:25;;;;;;;2.38;2.08;;;;;;;16.49;58.63;99137.53;4990871;28;20040;-80
2022/07/16 05:32:51;;;;;;;5.88;2.30;;;;;;;16.42;59.53;99139.72;5024964;28;20159;-81
2022/07/16 05:35:17;;;;;;;4.28;2.08;;;;;;;16.69;58.83;99150.09;5019096;28;20116;-80
2022/07/16 05:37:42;;;;;;;3.65;1.98;;;;;;;16.73;58.36;99147.66;5017531;28;20025;-80
2022/07/16 05:40:09;;;;;;;2.75;1.70;;;;;;;16.72;58.64;99148.72;5019415;28;20025;-80
2022/07/16 05:42:35;;;;;;;2.13;1.92;;;;;;;16.66;59.04;99150.66;5024925;28;20381;-80
2022/07/16 05:45:00;;;;;;;1.90;1.80;;;;;;;16.65;59.00;99145.53;5025404;28;20026;-80
2022/07/16 05:47:25;;;;;;;2.70;2.15;;;;;;;16.89;58.03;99154.53;5023192;28;20025;-80
2022/07/16 05:49:51;;;;;;;4.35;2.65;;;;;;;16.51;58.70;99128.41;5011958;28;20033;-80
2022/07/16 05:52:16;;;;;;;4.90;1.83;;;;;;;16.81;58.58;99163.22;4977764;28;20041;-80
2022/07/16 05:54:42;;;;;;;3.88;2.22;;;;;;;16.87;58.58;99168.28;4997204;28;20048;-80
2022/07/16 05:57:07;;;;;;;5.68;2.38;;;;;;;16.81;59.01;99165.91;5003020;28;20029;-80
2022/07/16 05:59:33;;;;;;;4.38;2.15;;;;;;;16.81;59.07;99163.22;5023156;28;20033;-80
2022/07/16 06:01:58;;;;;;;5.28;2.33;;;;;;;16.91;58.81;99177.41;5020768;28;20396;-80
2022/07/16 06:04:24;;;;;;;2.33;1.98;;;;;;;16.47;58.86;99112.75;5026789;28;20033;-80
2022/07/16 06:06:49;;;;;;;5.63;2.05;;;;;;;16.88;59.80;99178.00;5000942;28;20396;-80
2022/07/16 06:09:15;;;;;;;3.75;2.25;;;;;;;17.00;58.01;99180.31;5018024;28;20029;-80
2022/07/16 06:11:41;;;;;;;4.50;1.80;;;;;;;16.90;58.64;99153.44;5021652;28;20048;-80
2022/07/16 06:14:06;;;;;;;2.83;2.05;;;;;;;17.07;58.50;99172.72;5025430;28;20141;-80
2022/07/16 06:16:32;;;;;;;2.78;2.13;;;;;;;16.89;58.67;99178.78;5019471;28;20445;-80
2022/07/16 06:18:57;;;;;;;3.08;2.50;;;;;;;16.79;58.85;99160.00;5006655;28;20412;-80
2022/07/16 06:21:22;;;;;;;3.58;2.10;;;;;;;16.99;58.74;99176.81;4986550;28;20036;-80
2022/07/16 06:23:48;;;;;;;3.65;2.00;;;;;;;16.99;58.70;99173.34;5018755;28;20025;-80
2022/07/16 06:26:13;;;;;;;6.53;2.15;;;;;;;17.21;58.33;99185.25;5018816;28;20116;-80
2022/07/16 06:28:39;;;;;;;2.10;1.60;;;;;;;17.18;58.00;99166.97;5008503;28;20509;-79
2022/07/16 06:31:04;;;;;;;2.80;1.73;;;;;;;17.07;58.83;99172.72;5021730;28;20025;-80
2022/07/16 06:33:30;;;;;;;5.43;2.08;;;;;;;17.19;58.49;99181.22;5022290;28;20040;-80
2022/07/16 06:35:55;;;;;;;3.17;1.92;;;;;;;17.20;58.53;99194.47;5022376;28;20038;-80
2022/07/16 06:38:20;;;;;;;6.05;1.90;;;;;;;17.33;58.43;99192.19;5024103;28;20508;-80
2022/07/16 06:40:46;;;;;;;2.97;1.75;;;;;;;17.19;58.25;99190.13;5001564;28;20052;-80
2022/07/16 06:43:12;;;;;;;2.83;1.90;;;;;;;17.23;58.45;99185.00;5020752;28;20079;-81
2022/07/16 06:45:37;;;;;;;4.55;2.10;;;;;;;17.07;58.97;99178.13;5023204;28;20635;-80
2022/07/16 06:48:03;;;;;;;1.98;1.80;;;;;;;17.29;58.22;99191.13;5022422;28;20159;-80
2022/07/16 06:50:28;;;;;;;6.63;2.40;;;;;;;17.30;58.49;99200.88;5012267;28;20406;-80
2022/07/16 06:52:54;;;;;;;4.30;2.15;;;;;;;17.29;58.80;99200.03;5017472;28;20082;-80
2022/07/16 06:55:19;;;;;;;4.70;2.20;;;;;;;17.02;58.34;99152.00;5015953;28;20030;-80
2022/07/16 06:57:44;;;;;;;3.33;2.03;;;;;;;17.35;59.08;99209.69;5020529;28;20033;-80
2022/07/16 07:00:10;;;;;;;6.13;2.20;;;;;;;17.43;60.07;99221.78;4991277;28;20068;-80
2022/07/16 07:02:36;;;;;;;2.45;1.83;;;;;;;17.55;58.57;99222.25;5007514;28;20059;-80
2022/07/16 07:05:01;;;;;;;3.40;2.42;;;;;;;17.38;59.51;99244.22;5017435;28;20038;-80
2022/07/16 07:07:27;;;;;;;5.05;3.10;;;;;;;17.47;59.43;99225.53;5027081;28;20037;-80
2022/07/16 07:09:52;;;;;;;4.63;2.22;;;;;;;17.39;59.53;99231.53;4999778;28;20393;-80
2022/07/16 07:12:17;;;;;;;3.47;2.28;;;;;;;17.48;60.07;99254.13;5010121;28;20678;-80
2022/07/16 07:14:43;;;;;;;5.68;2.97;;;;;;;17.35;61.14;99258.28;5022084;28;20033;-81
2022/07/16 07:17:08;;;;;;;3.40;2.30;;;;;;;17.18;62.03;99247.09;5021839;28;20048;-80
2022/07/16 07:19:34;;;;;;;4.80;2.50;;;;;;;16.94;63.02;99246.97;5004059;28;20179;-80
2022/07/16 07:21:59;;;;;;;5.60;3.10;;;;;;;17.17;63.50;99265.16;5026675;28;20033;-81
2022/07/16 07:24:25;;;;;;;4.63;2.65;;;;;;;17.13;62.83;99260.59;5025271;28;20037;-80
2022/07/16 07:26:50;;;;;;;5.38;2.63;;;;;;;16.92;64.25;99262.63;5009945;28;20112;-80
2022/07/16 07:29:15;;;;;;;7.03;3.00;;;;;;;17.17;64.61;99284.03;4989866;28;20035;-80
2022/07/16 07:31:41;;;;;;;2.92;2.67;;;;;;;16.96;64.82;99277.16;5027077;28;20034;-80
2022/07/16 07:34:07;;;;;;;7.25;2.90;;;;;;;17.00;64.36;99277.41;5025977;28;20833;-81
2022/07/16 07:36:33;;;;;;;6.28;3.22;;;;;;;16.91;66.04;99276.38;5007682;28;20048;-81
2022/07/16 07:38:58;;;;;;;3.03;2.70;;;;;;;16.75;65.78;99253.31;5025064;28;20482;-81
2022/07/16 07:41:23;;;;;;;3.40;2.80;;;;;;;17.06;65.39;99290.59;5024072;28;20036;-80
2022/07/16 07:43:49;;;;;;;4.55;2.80;;;;;;;17.21;65.70;99292.41;5006289;28;20558;-81
2022/07/16 07:46:14;;;;;;;4.72;3.42;;;;;;;17.04;67.29;99287.34;5008421;28;20478;-81
2022/07/16 07:48:40;;;;;;;4.95;2.75;;;;;;;17.18;65.57;99282.16;5018454;28;20470;-80
2022/07/16 07:51:05;;;;;;;3.65;3.33;;;;;;;17.19;68.76;99302.63;5016927;28;20034;-81
2022/07/16 07:53:30;;;;;;;7.15;3.03;;;;;;;17.25;65.99;99285.34;5006518;28;20041;-80
2022/07/16 07:55:56;;;;;;;3.17;2.63;;;;;;;17.24;65.87;99291.81;5009660;28;20068;-81
2022/07/16 07:58:22;;;;;;;6.53;2.80;;;;;;;17.19;68.22;99298.03;5009754;28;20037;-81
2022/07/16 08:00:47;;;;;;;3.65;2.53;;;;;;;17.35;66.40;99285.25;5026369;28;20401;-81
2022/07/16 08:03:12;;;;;;;3.25;2.40;;;;;;;17.48;65.33;99291.91;4990929;28;20476;-80
2022/07/16 08:05:38;;;;;;;3.92;2.47;;;;;;;17.57;65.96;99303.72;5005468;28;20042;-80
2022/07/16 08:08:04;;;;;;;5.18;3.40;;;;;;;17.69;66.37;99304.97;5024372;28;20033;-80
2022/07/16 08:10:29;;;;;;;3.55;3.05;;;;;;;17.80;65.52;99306.50;5021167;28;20121;-80
2022/07/16 08:12:55;;;;;;;3.13;2.83;;;;;;;17.78;66.09;99308.69;5009867;28;20128;-80
2022/07/16 08:15:20;;;;;;;3.55;2.45;;;;;;;17.74;66.86;99301.44;5024920;28;20921;-80
2022/07/16 08:17:46;;;;;;;4.05;2.53;;;;;;;17.86;66.67;99296.47;5022088;28;20037;-81
2022/07/16 08:20:13;;;;;;;6.28;3.58;;;;;;;17.78;67.72;99302.47;4996226;28;20029;-81
2022/07/16 08:22:38;;;;;;;2.90;2.25;;;;;;;18.20;66.50;99315.28;5016316;28;20149;-80
2022/07/16 08:27:49;;;;;;;5.50;2.58;;;;;;;18.28;67.61;99311.97;5024087;28;20084;-81
2022/07/16 08:30:15;;;;;;;3.05;2.50;;;;;;;18.14;65.03;99300.22;4997632;28;20033;-81
2022/07/16 08:32:40;;;;;;;2.83;2.17;;;;;;;18.46;64.78;99322.88;5017818;28;20067;-81
2022/07/16 08:35:06;;;;;;;5.60;2.90;;;;;;;18.47;65.13;99318.28;5021233;28;20025;-80
2022/07/16 08:37:35;;;;;;;6.22;3.67;;;;;;;18.37;68.57;99327.25;5006368;28;20497;-81
2022/07/16 08:40:06;;;;;;;3.33;3.03;;;;;;;18.51;67.21;99324.72;5019025;28;20388;-80
2022/07/16 08:42:35;;;;;;;5.68;2.50;;;;;;;18.55;64.42;99320.34;5006964;28;20200;-81
2022/07/16 08:45:02;;;;;;;3.80;2.58;;;;;;;18.49;64.40;99319.59;5020212;28;20547;-81
2022/07/16 08:47:29;;;;;;;4.90;2.30;;;;;;;18.30;65.29;99315.19;5024977;28;20915;-81
2022/07/16 08:49:55;;;;;;;3.53;2.67;;;;;;;18.24;65.06;99292.81;5005220;28;20033;-80
2022/07/16 08:52:26;;;;;;;2.45;2.08;;;;;;;18.57;65.72;99320.84;5023436;28;20377;-81
2022/07/16 08:54:52;;;;;;;2.33;2.13;;;;;;;18.86;64.61;99324.28;4995689;28;20032;-80
2022/07/16 08:57:19;;;;;;;2.78;2.33;;;;;;;18.79;64.47;99333.81;5022792;28;20116;-81
2022/07/16 08:59:45;;;;;;;2.85;2.22;;;;;;;18.62;63.75;99340.53;5035700;28;20178;-80
2022/07/16 09:02:14;;;;;;;2.92;2.13;;;;;;;18.87;63.68;99335.91;5025014;28;20111;-81
2022/07/16 09:04:41;;;;;;;2.17;1.98;;;;;;;19.12;62.42;99354.50;5027589;28;20457;-80
2022/07/16 09:07:07;;;;;;;3.30;1.95;;;;;;;19.07;62.31;99341.03;5015007;28;20029;-80
2022/07/16 09:09:32;;;;;;;2.30;1.90;;;;;;;19.23;61.70;99348.66;5021419;28;20379;-80
2022/07/16 09:11:58;;;;;;;3.50;1.75;;;;;;;19.34;61.15;99355.56;4987058;28;20044;-81
2022/07/16 09:14:23;;;;;;;1.70;1.60;;;;;;;19.42;60.06;99349.50;5017834;28;20108;-80
2022/07/16 09:16:51;;;;;;;3.83;1.92;;;;;;;19.08;60.88;99327.22;5017666;28;20255;-81
2022/07/16 09:19:22;;;;;;;2.35;1.98;;;;;;;19.44;59.91;99341.06;5021637;28;20017;-81
2022/07/16 09:22:07;;;;;;;3.40;2.25;;;;;;;19.26;60.63;99353.47;5037019;28;20048;-81
2022/07/16 09:24:43;;;;;;;1.85;1.75;;;;;;;19.66;59.82;99348.59;5021459;28;20041;-80
2022/07/16 09:27:10;;;;;;;1.45;1.35;;;;;;;19.74;59.41;99356.03;5002535;28;20420;-81
2022/07/16 09:29:52;;;;;;;1.63;1.45;;;;;;;19.87;58.59;99360.72;5022301;28;20040;-81
2022/07/16 09:32:34;;;;;;;3.25;1.67;;;;;;;19.96;58.36;99357.00;5021132;28;20517;-81
2022/07/16 09:35:13;;;;;;;2.15;1.73;;;;;;;19.79;57.90;99361.38;5016211;28;20033;-80
2022/07/16 09:37:49;;;;;;;3.40;1.42;;;;;;;19.77;58.68;99360.84;5021152;28;20032;-81
2022/07/16 09:40:28;;;;;;;2.25;1.85;;;;;;;20.11;57.55;99353.25;5021692;28;20065;-81
2022/07/16 09:43:02;;;;;;;2.08;1.73;;;;;;;20.19;57.74;99368.81;5095740;27;20389;-80
2022/07/16 09:45:28;;;;;;;4.60;1.70;;;;;;;19.78;58.12;99340.81;5088573;28;20504;-80
2022/07/16 09:47:54;;;;;;;2.22;1.35;;;;;;;20.02;57.11;99342.28;5079829;28;20039;-80
2022/07/16 09:50:19;;;;;;;3.13;1.42;;;;;;;19.96;57.34;99351.59;5070763;28;20032;-80
2022/07/16 09:52:45;;;;;;;2.90;2.05;;;;;;;20.08;57.10;99356.53;5056945;28;20542;-80
2022/07/16 09:55:10;;;;;;;2.38;1.80;;;;;;;19.61;58.10;99362.22;5080169;28;20032;-80
2022/07/16 09:57:36;;;;;;;2.42;1.75;;;;;;;20.17;56.72;99358.28;5084469;28;20128;-81
2022/07/16 10:00:07;;;;;;;2.13;1.60;;;;;;;20.26;56.81;99361.13;5080361;28;20426;-81
2022/07/16 10:02:33;;;;;;;4.13;1.73;;;;;;;20.22;56.54;99368.25;5080603;28;20063;-81
2022/07/16 10:04:59;;;;;;;2.60;1.58;;;;;;;20.14;56.50;99366.19;5071997;28;20063;-81
2022/07/16 10:07:24;;;;;;;1.65;1.15;;;;;;;20.11;56.72;99358.66;5075979;28;20090;-81
2022/07/16 10:09:50;;;;;;;3.28;1.60;;;;;;;19.87;56.65;99366.13;5072795;28;20024;-81
2022/07/16 10:12:19;;;;;;;2.28;1.60;;;;;;;19.49;56.94;99348.31;5082332;28;20034;-80
2022/07/16 10:14:50;;;;;;;9.00;3.75;;;;;;;19.85;57.84;99373.75;5087034;28;20032;-81
2022/07/16 10:17:21;;;;;;;2.33;1.67;;;;;;;19.84;57.00;99374.84;5075819;28;20393;-80
2022/07/16 10:20:05;;;;;;;3.80;1.80;;;;;;;19.86;55.98;99373.44;5075442;28;20031;-80
2022/07/16 10:22:50;;;;;;;5.85;1.60;;;;;;;19.88;56.36;99351.47;5074300;28;20451;-81
2022/07/16 10:25:18;;;;;;;2.50;1.85;;;;;;;19.71;56.73;99376.41;5091378;28;20032;-81
2022/07/16 10:27:44;;;;;;;1.90;1.80;;;;;;;19.59;57.25;99351.69;5078262;28;20035;-81
2022/07/16 10:30:23;;;;;;;2.47;1.55;;;;;;;19.93;56.45;99365.75;5086234;28;20581;-81
2022/07/16 10:33:02;;;;;;;2.83;1.80;;;;;;;20.37;55.28;99359.03;5074700;28;20021;-81
2022/07/16 10:35:30;;;;;;;4.20;1.65;;;;;;;20.48;55.42;99349.59;5090158;28;20149;-81
2022/07/16 10:38:10;;;;;;;4.13;1.42;;;;;;;20.57;55.18;99354.03;5092685;28;20127;-81
2022/07/16 10:40:37;;;;;;;5.35;1.55;;;;;;;20.52;53.59;99375.81;5074882;28;20029;-81
2022/07/16 10:43:29;;;;;;;1.95;1.75;;;;;;;20.67;53.17;99366.59;5077351;28;20082;-81
2022/07/16 10:46:03;;;;;;;5.85;1.45;;;;;;;20.35;53.45;99369.38;5075689;28;20550;-81
2022/07/16 10:48:49;;;;;;;2.50;1.40;;;;;;;20.21;53.85;99357.69;5072173;28;20058;-81
2022/07/16 10:51:20;;;;;;;2.55;1.42;;;;;;;20.29;53.53;99359.72;5079541;28;20040;-81
2022/07/16 10:53:57;;;;;;;2.90;1.70;;;;;;;20.68;53.82;99355.44;5075303;28;20036;-81
2022/07/16 10:56:50;;;;;;;1.50;1.40;;;;;;;20.69;52.29;99364.38;5060128;28;20051;-81
2022/07/16 10:59:27;;;;;;;2.25;1.42;;;;;;;20.30;52.14;99370.28;5058045;28;20032;-81
2022/07/16 11:01:57;;;;;;;2.38;1.40;;;;;;;20.31;52.08;99363.75;5060453;28;20048;-81
2022/07/16 11:04:36;;;;;;;3.75;1.85;;;;;;;20.28;51.99;99386.03;5061864;28;20381;-80
2022/07/16 11:07:24;;;;;;;4.53;1.92;;;;;;;19.87;53.05;99374.25;5059167;28;20032;-81
2022/07/16 11:09:52;;;;;;;2.83;1.40;;;;;;;19.67;53.85;99361.84;5058967;28;20048;-81
2022/07/16 11:12:21;;;;;;;2.00;1.63;;;;;;;20.08;53.51;99361.97;5062364;28;20036;-80
2022/07/16 11:14:48;;;;;;;3.05;1.65;;;;;;;20.27;53.29;99338.31;5061601;28;20024;-80
2022/07/16 11:17:15;;;;;;;2.95;1.40;;;;;;;20.69;52.59;99361.66;5064066;28;20062;-80
2022/07/16 11:19:52;;;;;;;6.00;1.55;;;;;;;21.01;51.44;99356.13;5063929;28;20037;-80
2022/07/16 11:22:20;;;;;;;1.92;1.60;;;;;;;21.18;50.60;99360.94;5059973;28;20035;-81
2022/07/16 11:24:48;;;;;;;2.13;1.55;;;;;;;21.35;49.83;99367.34;5061486;28;20020;-81
2022/07/16 11:27:14;;;;;;;1.67;1.45;;;;;;;21.59;48.96;99357.00;5063711;28;20058;-81
2022/07/16 11:29:40;;;;;;;2.58;1.50;;;;;;;21.87;48.10;99374.00;5062330;28;20059;-80
2022/07/16 11:32:06;;;;;;;1.30;1.20;;;;;;;21.89;46.93;99327.47;5066222;28;20534;-81
2022/07/16 11:34:33;;;;;;;3.50;1.15;;;;;;;22.11;47.05;99374.47;5066320;28;20041;-80
2022/07/16 11:36:59;;;;;;;2.83;1.67;;;;;;;22.38;46.40;99360.72;5062880;28;20029;-81
2022/07/16 11:39:27;;;;;;;3.20;1.73;;;;;;;22.66;46.44;99363.25;5077328;28;20028;-81
2022/07/16 11:41:58;;;;;;;1.33;1.23;;;;;;;22.57;46.43;99373.25;5061044;28;20044;-81
2022/07/16 11:44:32;;;;;;;4.63;1.33;;;;;;;22.46;46.60;99377.38;5060177;28;20543;-80